Time;durP1;ratioP1;P1;durP2;ratioP2;P2;SDS_P1;SDS_P2;PMS_P1;PMS_P2;Temp;Humidity;BMP_temperature;BMP_pressure;BME280_temperature;BME280_humidity;BME280_pressure;Samples;Min_cycle;Max_cycle;Signal;HPM_P1;HPM_P2
2022/10/19 00:01:16;;;;;;;10.82;2.00;;;;;;;;;;5138005;27;20035;-71
2022/10/19 00:03:43;;;;;;;7.70;1.98;;;;;;;;;;5153153;27;20035;-71
2022/10/19 00:06:17;;;;;;;12.50;2.35;;;;;;;;;;5150725;27;20043;-71
2022/10/19 00:08:43;;;;;;;11.15;1.80;;;;;;;;;;5138909;27;20043;-70
2022/10/19 00:11:10;;;;;;;9.85;2.13;;;;;;;;;;5142414;27;20047;-72
2022/10/19 00:13:36;;;;;;;11.73;2.30;;;;;;;;;;5134584;27;20046;-72
2022/10/19 00:16:06;;;;;;;8.77;1.80;;;;;;;;;;5134064;27;20122;-71
2022/10/19 00:18:32;;;;;;;8.88;1.90;;;;;;;;;;5134454;27;20062;-71
2022/10/19 00:21:03;;;;;;;11.55;2.47;;;;;;;;;;5120205;27;20464;-72
2022/10/19 00:23:29;;;;;;;10.80;2.60;;;;;;;;;;5155200;27;20043;-71
2022/10/19 00:25:56;;;;;;;12.48;2.13;;;;;;;;;;5154306;27;20043;-71
2022/10/19 00:28:22;;;;;;;13.00;2.08;;;;;;;;;;5155047;27;20046;-71
2022/10/19 00:30:48;;;;;;;10.07;2.22;;;;;;;;;;5152449;27;20058;-71
2022/10/19 00:33:19;;;;;;;10.50;2.30;;;;;;;;;;5143001;27;20054;-71
2022/10/19 00:35:47;;;;;;;;;;;;;;;;;;5153260;27;20042;-71
2022/10/19 00:38:13;;;;;;;11.95;2.58;;;;;;;;;;5141321;27;20005;-71
2022/10/19 00:40:40;;;;;;;8.90;2.28;;;;;;;;;;5134006;27;20393;-71
2022/10/19 00:43:10;;;;;;;12.23;2.10;;;;;;;;;;5150853;27;20042;-71
2022/10/19 00:45:36;;;;;;;10.35;2.10;;;;;;;;;;5141798;27;20170;-71
2022/10/19 00:48:02;;;;;;;7.90;2.15;;;;;;;;;;5136209;27;20062;-71
2022/10/19 00:50:29;;;;;;;11.32;2.08;;;;;;;;;;5133130;27;20401;-71
2022/10/19 00:52:55;;;;;;;9.57;2.05;;;;;;;;;;5149781;27;20038;-71
2022/10/19 00:55:21;;;;;;;9.85;2.13;;;;;;;;;;5153492;27;20051;-71
2022/10/19 00:57:47;;;;;;;9.88;2.35;;;;;;;;;;5135332;27;20055;-70
2022/10/19 01:00:13;;;;;;;16.33;2.45;;;;;;;;;;5150818;27;20764;-71
2022/10/19 01:02:39;;;;;;;10.38;2.13;;;;;;;;;;5115168;28;20125;-71
2022/10/19 01:05:06;;;;;;;10.85;1.90;;;;;;;;;;5152144;27;20080;-72
2022/10/19 01:07:32;;;;;;;13.15;2.45;;;;;;;;;;5145118;27;20092;-72
2022/10/19 01:09:59;;;;;;;10.07;2.15;;;;;;;;;;5154479;27;20125;-72
2022/10/19 01:12:33;;;;;;;12.55;2.00;;;;;;;;;;5145226;27;20077;-72
2022/10/19 01:15:08;;;;;;;10.18;2.25;;;;;;;;;;5138128;27;20045;-72
2022/10/19 01:17:37;;;;;;;12.25;2.10;;;;;;;;;;5153104;27;20532;-72
2022/10/19 01:20:13;;;;;;;10.68;2.25;;;;;;;;;;5152457;27;20070;-72
2022/10/19 01:22:45;;;;;;;14.35;2.15;;;;;;;;;;5139889;27;20062;-72
2022/10/19 01:25:11;;;;;;;10.18;2.30;;;;;;;;;;5133882;28;20043;-72
2022/10/19 01:27:50;;;;;;;13.30;2.58;;;;;;;;;;5128561;27;20046;-72
2022/10/19 01:30:19;;;;;;;8.07;1.95;;;;;;;;;;5137149;27;20425;-73
2022/10/19 01:32:45;;;;;;;8.38;1.90;;;;;;;;;;5133191;27;20397;-72
2022/10/19 01:35:11;;;;;;;6.57;2.08;;;;;;;;;;5143439;27;20042;-72
2022/10/19 01:37:48;;;;;;;9.55;2.10;;;;;;;;;;5139772;27;20403;-72
2022/10/19 01:40:23;;;;;;;8.52;2.10;;;;;;;;;;5141008;27;20043;-72
2022/10/19 01:42:58;;;;;;;8.43;2.22;;;;;;;;;;5148481;27;20115;-72
2022/10/19 01:45:30;;;;;;;8.80;2.05;;;;;;;;;;5142019;27;20404;-72
2022/10/19 01:48:02;;;;;;;8.07;2.10;;;;;;;;;;5132856;27;20043;-72
2022/10/19 01:50:34;;;;;;;6.90;2.20;;;;;;;;;;5138052;27;20038;-72
2022/10/19 01:53:01;;;;;;;5.70;1.95;;;;;;;;;;5144283;27;20043;-72
2022/10/19 01:55:28;;;;;;;11.30;2.05;;;;;;;;;;5144685;27;20072;-72
2022/10/19 01:57:59;;;;;;;10.45;2.25;;;;;;;;;;5152998;27;20039;-72
2022/10/19 02:00:26;;;;;;;9.07;2.20;;;;;;;;;;5143682;27;20177;-72
2022/10/19 02:02:53;;;;;;;9.48;2.10;;;;;;;;;;5143913;27;20042;-72
2022/10/19 02:05:21;;;;;;;12.85;2.50;;;;;;;;;;5136292;27;20031;-72
2022/10/19 02:07:49;;;;;;;8.48;2.05;;;;;;;;;;5124073;27;20050;-72
2022/10/19 02:10:15;;;;;;;9.60;2.40;;;;;;;;;;5157790;27;20050;-72
2022/10/19 02:12:42;;;;;;;11.13;2.17;;;;;;;;;;5145404;27;20047;-72
2022/10/19 02:15:14;;;;;;;10.13;2.00;;;;;;;;;;5149062;27;20047;-72
2022/10/19 02:17:43;;;;;;;12.05;2.30;;;;;;;;;;5137405;27;20433;-72
2022/10/19 02:20:09;;;;;;;8.63;1.70;;;;;;;;;;5155723;27;20051;-72
2022/10/19 02:22:35;;;;;;;10.15;2.17;;;;;;;;;;5117958;27;20079;-72
2022/10/19 02:25:02;;;;;;;9.52;2.15;;;;;;;;;;5143561;27;20035;-72
2022/10/19 02:27:28;;;;;;;10.57;2.10;;;;;;;;;;5140320;27;20485;-72
2022/10/19 02:29:54;;;;;;;9.20;2.22;;;;;;;;;;5118239;27;20051;-72
2022/10/19 02:32:20;;;;;;;9.70;2.20;;;;;;;;;;5139823;27;20043;-72
2022/10/19 02:34:46;;;;;;;9.93;2.50;;;;;;;;;;5136647;27;20031;-72
2022/10/19 02:37:12;;;;;;;10.57;2.40;;;;;;;;;;5153150;27;20054;-72
2022/10/19 02:39:39;;;;;;;11.63;2.17;;;;;;;;;;5154017;27;20039;-72
2022/10/19 02:42:16;;;;;;;10.20;2.55;;;;;;;;;;5156016;27;20042;-72
2022/10/19 02:44:47;;;;;;;9.95;2.30;;;;;;;;;;5157425;27;20046;-72
2022/10/19 02:47:16;;;;;;;12.30;2.28;;;;;;;;;;5154590;27;20050;-72
2022/10/19 02:49:43;;;;;;;11.48;1.98;;;;;;;;;;5156967;27;20497;-72
2022/10/19 02:52:10;;;;;;;12.85;2.25;;;;;;;;;;5138139;27;20447;-72
2022/10/19 02:54:36;;;;;;;9.75;1.92;;;;;;;;;;5153475;27;20045;-72
2022/10/19 02:57:04;;;;;;;11.40;2.05;;;;;;;;;;5156183;27;20042;-72
2022/10/19 02:59:30;;;;;;;10.07;2.00;;;;;;;;;;5155846;27;20039;-72
2022/10/19 03:01:56;;;;;;;10.73;1.92;;;;;;;;;;5142158;27;20057;-72
2022/10/19 03:04:22;;;;;;;9.38;2.38;;;;;;;;;;5129051;27;20047;-72
2022/10/19 03:06:48;;;;;;;10.45;2.05;;;;;;;;;;5139349;27;20442;-72
2022/10/19 03:09:14;;;;;;;12.43;2.28;;;;;;;;;;5132103;27;20129;-72
2022/10/19 03:11:40;;;;;;;11.23;1.80;;;;;;;;;;5139291;27;20130;-72
2022/10/19 03:14:06;;;;;;;11.90;2.30;;;;;;;;;;5134951;27;20125;-72
2022/10/19 03:16:32;;;;;;;10.30;1.90;;;;;;;;;;5141942;27;20122;-72
2022/10/19 03:18:58;;;;;;;9.32;1.85;;;;;;;;;;5156391;27;20055;-72
2022/10/19 03:21:24;;;;;;;12.20;2.05;;;;;;;;;;5155260;27;20043;-72
2022/10/19 03:23:50;;;;;;;8.30;1.65;;;;;;;;;;5154080;27;20038;-72
2022/10/19 03:26:16;;;;;;;12.05;1.92;;;;;;;;;;5155421;27;20050;-72
2022/10/19 03:28:42;;;;;;;10.52;1.90;;;;;;;;;;5156388;27;20043;-72
2022/10/19 03:31:08;;;;;;;12.23;2.00;;;;;;;;;;5139273;27;20166;-72
2022/10/19 03:33:34;;;;;;;11.70;1.80;;;;;;;;;;5134922;27;20122;-72
2022/10/19 03:36:19;;;;;;;10.25;2.10;;;;;;;;;;5140567;27;20131;-72
2022/10/19 03:38:45;;;;;;;12.52;2.25;;;;;;;;;;5155165;27;20050;-72
2022/10/19 03:41:11;;;;;;;12.02;1.90;;;;;;;;;;5140843;27;20081;-72
2022/10/19 03:43:37;;;;;;;11.18;2.00;;;;;;;;;;5155122;27;20039;-72
2022/10/19 03:46:03;;;;;;;9.70;2.10;;;;;;;;;;5151475;27;20031;-72
2022/10/19 03:48:29;;;;;;;9.10;1.85;;;;;;;;;;5135047;27;20401;-72
2022/10/19 03:51:04;;;;;;;8.18;1.92;;;;;;;;;;5116020;27;20046;-72
2022/10/19 03:53:30;;;;;;;12.55;2.60;;;;;;;;;;5150535;27;20050;-72
2022/10/19 03:56:16;;;;;;;11.38;2.00;;;;;;;;;;5119983;27;20058;-72
2022/10/19 03:58:43;;;;;;;10.75;2.17;;;;;;;;;;5139646;27;20106;-69
2022/10/19 04:01:13;;;;;;;9.55;1.85;;;;;;;;;;5154444;27;20081;-71
2022/10/19 04:03:39;;;;;;;14.30;1.77;;;;;;;;;;5140745;27;20141;-71
2022/10/19 04:06:16;;;;;;;10.95;1.83;;;;;;;;;;5142391;27;20055;-71
2022/10/19 04:08:42;;;;;;;12.10;2.08;;;;;;;;;;5151641;27;20495;-71
2022/10/19 04:11:11;;;;;;;9.43;2.13;;;;;;;;;;5121708;27;20175;-71
2022/10/19 04:13:37;;;;;;;9.07;2.22;;;;;;;;;;5134949;27;20096;-71
2022/10/19 04:16:03;;;;;;;9.05;1.88;;;;;;;;;;5137601;27;20039;-71
2022/10/19 04:18:29;;;;;;;13.55;2.50;;;;;;;;;;5155407;27;20050;-71
2022/10/19 04:20:56;;;;;;;9.13;2.55;;;;;;;;;;5152594;27;20057;-71
2022/10/19 04:23:22;;;;;;;13.30;2.53;;;;;;;;;;5154284;27;20046;-71
2022/10/19 04:25:48;;;;;;;8.75;2.47;;;;;;;;;;5134099;27;20050;-71
2022/10/19 04:28:14;;;;;;;8.25;1.90;;;;;;;;;;5137469;27;20038;-71
2022/10/19 04:30:40;;;;;;;9.65;2.10;;;;;;;;;;5147156;27;20039;-71
2022/10/19 04:33:06;;;;;;;12.05;2.33;;;;;;;;;;5142298;27;20031;-71
2022/10/19 04:35:32;;;;;;;13.35;3.00;;;;;;;;;;5142664;27;20492;-70
2022/10/19 04:37:59;;;;;;;10.68;2.47;;;;;;;;;;5153818;27;20045;-71
2022/10/19 04:40:25;;;;;;;13.88;2.25;;;;;;;;;;5153819;27;20041;-71
2022/10/19 04:42:51;;;;;;;15.30;2.83;;;;;;;;;;5152901;27;20039;-71
2022/10/19 04:45:17;;;;;;;14.35;4.30;;;;;;;;;;5150285;27;20039;-71
2022/10/19 04:47:43;;;;;;;14.55;8.25;;;;;;;;;;5115677;28;20051;-71
2022/10/19 04:50:09;;;;;;;8.75;7.20;;;;;;;;;;5115546;27;20393;-71
2022/10/19 04:52:35;;;;;;;12.43;4.57;;;;;;;;;;5115311;27;20043;-71
2022/10/19 04:55:01;;;;;;;14.20;2.83;;;;;;;;;;5133244;27;20047;-71
2022/10/19 04:57:27;;;;;;;10.77;2.55;;;;;;;;;;5123644;27;20050;-70
2022/10/19 04:59:53;;;;;;;13.85;2.45;;;;;;;;;;5133975;27;20400;-71
2022/10/19 05:02:19;;;;;;;12.05;2.10;;;;;;;;;;5120368;27;20042;-71
2022/10/19 05:04:47;;;;;;;12.15;2.17;;;;;;;;;;5154657;27;20045;-71
2022/10/19 05:07:13;;;;;;;12.77;2.38;;;;;;;;;;5154647;27;20053;-71
2022/10/19 05:09:39;;;;;;;12.02;2.08;;;;;;;;;;5144207;27;20126;-71
2022/10/19 05:12:05;;;;;;;17.98;2.40;;;;;;;;;;5132975;27;20047;-71
2022/10/19 05:14:33;;;;;;;10.68;1.70;;;;;;;;;;5138521;27;20496;-71
2022/10/19 05:16:59;;;;;;;14.00;1.77;;;;;;;;;;5137234;27;20095;-70
2022/10/19 05:19:25;;;;;;;10.88;2.00;;;;;;;;;;5146460;27;20129;-71
2022/10/19 05:21:51;;;;;;;10.07;1.90;;;;;;;;;;5136075;27;20043;-71
2022/10/19 05:24:17;;;;;;;9.45;1.85;;;;;;;;;;5115771;27;20051;-70
2022/10/19 05:26:43;;;;;;;12.75;1.90;;;;;;;;;;5153610;27;20034;-71
2022/10/19 05:29:10;;;;;;;14.40;2.05;;;;;;;;;;5154474;27;20062;-71
2022/10/19 05:31:36;;;;;;;10.80;1.60;;;;;;;;;;5154447;27;20111;-71
2022/10/19 05:34:02;;;;;;;13.15;1.92;;;;;;;;;;5154407;27;20035;-71
2022/10/19 05:36:36;;;;;;;13.05;2.28;;;;;;;;;;5154383;27;20056;-71
2022/10/19 05:39:06;;;;;;;10.13;1.90;;;;;;;;;;5137634;27;20043;-71
2022/10/19 05:41:33;;;;;;;13.60;2.08;;;;;;;;;;5137717;27;20039;-71
2022/10/19 05:44:00;;;;;;;12.38;1.60;;;;;;;;;;5137657;27;20043;-71
2022/10/19 05:46:26;;;;;;;15.43;2.25;;;;;;;;;;5137239;27;20041;-71
2022/10/19 05:48:52;;;;;;;13.18;2.10;;;;;;;;;;5137469;27;20035;-72
2022/10/19 05:51:20;;;;;;;16.77;2.03;;;;;;;;;;5147444;27;20076;-72
2022/10/19 05:53:46;;;;;;;14.00;2.10;;;;;;;;;;5136699;27;20043;-72
2022/10/19 05:56:14;;;;;;;16.00;3.10;;;;;;;;;;5117563;27;20035;-72
2022/10/19 05:58:40;;;;;;;13.35;3.05;;;;;;;;;;5135981;27;20485;-72
2022/10/19 06:01:07;;;;;;;15.63;2.53;;;;;;;;;;5148084;27;20048;-72
2022/10/19 06:03:33;;;;;;;12.77;2.42;;;;;;;;;;5144108;27;20104;-72
2022/10/19 06:06:02;;;;;;;14.57;2.97;;;;;;;;;;5150058;27;20074;-72
2022/10/19 06:08:27;;;;;;;12.10;1.98;;;;;;;;;;5136048;27;20047;-72
2022/10/19 06:11:03;;;;;;;13.20;1.98;;;;;;;;;;5136027;27;20493;-73
2022/10/19 06:13:29;;;;;;;11.95;2.40;;;;;;;;;;5136047;27;20050;-72
2022/10/19 06:15:55;;;;;;;15.30;2.85;;;;;;;;;;5117936;27;20405;-72
2022/10/19 06:18:24;;;;;;;12.82;2.05;;;;;;;;;;5145202;27;20055;-72
2022/10/19 06:20:51;;;;;;;12.75;2.28;;;;;;;;;;5156770;27;20047;-72
2022/10/19 06:23:17;;;;;;;12.82;1.85;;;;;;;;;;5136497;27;20074;-72
2022/10/19 06:25:43;;;;;;;10.10;2.65;;;;;;;;;;5153530;27;21317;-72
2022/10/19 06:28:09;;;;;;;12.98;2.28;;;;;;;;;;5135937;27;20503;-72
2022/10/19 06:30:38;;;;;;;20.05;6.70;;;;;;;;;;5139770;27;20035;-70
2022/10/19 06:33:04;;;;;;;17.90;5.20;;;;;;;;;;5152797;27;20122;-71
2022/10/19 06:35:30;;;;;;;17.13;3.78;;;;;;;;;;5135888;27;20075;-71
2022/10/19 06:37:57;;;;;;;13.88;2.67;;;;;;;;;;5143268;27;20118;-71
2022/10/19 06:40:23;;;;;;;13.38;2.80;;;;;;;;;;5156528;27;20050;-71
2022/10/19 06:42:49;;;;;;;12.98;2.88;;;;;;;;;;5121622;27;20039;-71
2022/10/19 06:45:16;;;;;;;20.38;3.40;;;;;;;;;;5138091;27;20519;-71
2022/10/19 06:47:42;;;;;;;15.75;2.90;;;;;;;;;;5148851;27;20079;-71
2022/10/19 06:50:08;;;;;;;13.82;2.38;;;;;;;;;;5155891;27;20420;-71
2022/10/19 06:52:34;;;;;;;16.83;2.70;;;;;;;;;;5156312;27;20043;-70
2022/10/19 06:55:00;;;;;;;19.08;3.17;;;;;;;;;;5146961;27;20102;-71
2022/10/19 06:57:27;;;;;;;11.23;2.33;;;;;;;;;;5143960;27;20039;-71
2022/10/19 06:59:53;;;;;;;14.93;2.65;;;;;;;;;;5138479;27;20074;-71
2022/10/19 07:02:19;;;;;;;16.38;3.40;;;;;;;;;;5116907;27;20047;-71
2022/10/19 07:04:45;;;;;;;14.02;2.55;;;;;;;;;;5134850;27;20043;-71
2022/10/19 07:07:12;;;;;;;15.43;2.70;;;;;;;;;;5135404;27;20078;-71
2022/10/19 07:09:38;;;;;;;13.20;2.10;;;;;;;;;;5135206;27;20506;-71
2022/10/19 07:12:04;;;;;;;13.20;2.08;;;;;;;;;;5135363;27;20130;-71
2022/10/19 07:14:30;;;;;;;15.82;2.53;;;;;;;;;;5116225;27;20043;-72
2022/10/19 07:16:56;;;;;;;12.05;2.08;;;;;;;;;;5138897;27;20183;-71
2022/10/19 07:19:25;;;;;;;16.85;2.72;;;;;;;;;;5147213;27;20047;-72
2022/10/19 07:21:51;;;;;;;19.98;4.60;;;;;;;;;;5137222;27;20043;-71
2022/10/19 07:24:18;;;;;;;13.32;2.85;;;;;;;;;;5135111;27;20082;-72
2022/10/19 07:26:44;;;;;;;24.20;5.38;;;;;;;;;;5134544;27;20143;-71
2022/10/19 07:29:10;;;;;;;19.02;2.60;;;;;;;;;;5149461;27;20088;-72
2022/10/19 07:31:36;;;;;;;14.52;2.10;;;;;;;;;;5155487;27;20046;-71
2022/10/19 07:34:03;;;;;;;20.27;5.15;;;;;;;;;;5147661;27;20043;-71
2022/10/19 07:36:32;;;;;;;14.02;3.08;;;;;;;;;;5135485;27;20083;-72
2022/10/19 07:38:58;;;;;;;18.17;2.08;;;;;;;;;;5135750;27;20525;-71
2022/10/19 07:41:25;;;;;;;17.63;2.70;;;;;;;;;;5134951;27;20122;-71
2022/10/19 07:43:51;;;;;;;18.20;3.70;;;;;;;;;;5150352;27;20098;-72
2022/10/19 07:46:27;;;;;;;11.70;1.80;;;;;;;;;;5148119;27;20072;-70
2022/10/19 07:48:53;;;;;;;10.18;1.77;;;;;;;;;;5140297;27;20122;-71
2022/10/19 07:51:20;;;;;;;12.70;2.20;;;;;;;;;;5121178;27;20050;-71
2022/10/19 07:53:46;;;;;;;20.20;3.05;;;;;;;;;;5141345;27;20123;-71
2022/10/19 07:56:19;;;;;;;13.90;2.72;;;;;;;;;;5135160;27;20126;-70
2022/10/19 07:58:46;;;;;;;19.08;2.47;;;;;;;;;;5134455;27;20714;-71
2022/10/19 08:01:14;;;;;;;14.25;2.10;;;;;;;;;;5135258;27;20038;-71
2022/10/19 08:03:40;;;;;;;14.80;3.03;;;;;;;;;;5144210;27;20496;-71
2022/10/19 08:06:07;;;;;;;15.00;2.60;;;;;;;;;;5155005;27;20035;-71
2022/10/19 08:08:34;;;;;;;11.30;1.95;;;;;;;;;;5154752;27;20081;-72
2022/10/19 08:11:10;;;;;;;9.95;2.00;;;;;;;;;;5144962;27;20062;-72
2022/10/19 08:13:37;;;;;;;15.00;2.28;;;;;;;;;;5137876;27;20115;-72
2022/10/19 08:16:03;;;;;;;13.10;2.00;;;;;;;;;;5145960;27;20047;-71
2022/10/19 08:18:29;;;;;;;13.23;2.03;;;;;;;;;;5134242;27;20054;-73
2022/10/19 08:20:55;;;;;;;13.48;2.00;;;;;;;;;;5135843;27;20404;-72
2022/10/19 08:23:26;;;;;;;13.93;2.38;;;;;;;;;;5143972;27;20043;-72
2022/10/19 08:25:56;;;;;;;12.63;1.70;;;;;;;;;;5143838;27;20054;-72
2022/10/19 08:28:22;;;;;;;16.13;1.92;;;;;;;;;;5142126;27;20074;-72
2022/10/19 08:30:48;;;;;;;12.27;2.13;;;;;;;;;;5134338;27;20485;-71
2022/10/19 08:33:14;;;;;;;11.82;1.42;;;;;;;;;;5115086;27;20084;-71
2022/10/19 08:35:40;;;;;;;16.65;2.00;;;;;;;;;;5115549;27;20130;-71
2022/10/19 08:38:06;;;;;;;15.15;1.85;;;;;;;;;;5133191;27;20118;-71
2022/10/19 08:40:32;;;;;;;14.13;1.85;;;;;;;;;;5142544;27;20043;-71
2022/10/19 08:43:13;;;;;;;14.93;1.70;;;;;;;;;;5122544;27;20063;-71
2022/10/19 08:45:44;;;;;;;15.93;2.13;;;;;;;;;;5135010;27;20070;-70
2022/10/19 08:48:23;;;;;;;14.85;3.97;;;;;;;;;;5114990;27;20047;-71
2022/10/19 08:50:49;;;;;;;11.57;1.90;;;;;;;;;;5133002;27;20043;-71
2022/10/19 08:53:24;;;;;;;12.68;1.85;;;;;;;;;;5132483;27;20046;-71
2022/10/19 08:55:50;;;;;;;13.07;2.00;;;;;;;;;;5134758;27;20043;-71
2022/10/19 08:58:31;;;;;;;14.52;1.88;;;;;;;;;;5141143;27;20039;-71
2022/10/19 09:01:10;;;;;;;13.75;1.77;;;;;;;;;;5117831;27;20039;-72
2022/10/19 09:03:51;;;;;;;9.52;2.05;;;;;;;;;;5148580;27;20393;-72
2022/10/19 09:06:28;;;;;;;11.90;1.67;;;;;;;;;;5111535;28;20043;-71
2022/10/19 09:08:54;;;;;;;10.63;1.50;;;;;;;;;;5133484;27;20053;-71
2022/10/19 09:11:25;;;;;;;12.30;1.95;;;;;;;;;;5149407;27;20161;-71
2022/10/19 09:13:55;;;;;;;15.05;1.73;;;;;;;;;;5157817;27;20441;-71
2022/10/19 09:16:21;;;;;;;11.60;1.60;;;;;;;;;;5158146;27;20039;-71
2022/10/19 09:18:48;;;;;;;9.63;1.50;;;;;;;;;;5157142;27;20058;-71
2022/10/19 09:21:22;;;;;;;12.60;1.50;;;;;;;;;;5140284;27;20118;-71
2022/10/19 09:23:48;;;;;;;10.50;2.03;;;;;;;;;;5139219;27;20047;-72
2022/10/19 09:26:18;;;;;;;11.65;1.67;;;;;;;;;;5150712;27;20043;-76
2022/10/19 09:28:44;;;;;;;7.93;1.80;;;;;;;;;;5157278;27;20054;-73
2022/10/19 09:31:14;;;;;;;12.80;2.20;;;;;;;;;;5157548;27;20050;-72
2022/10/19 09:33:41;;;;;;;11.90;1.67;;;;;;;;;;5147841;27;20049;-71
2022/10/19 09:36:07;;;;;;;11.30;1.98;;;;;;;;;;5129843;27;20121;-74
2022/10/19 09:38:33;;;;;;;12.35;1.67;;;;;;;;;;5150654;27;20058;-71
2022/10/19 09:41:19;;;;;;;9.10;1.40;;;;;;;;;;5136750;27;20132;-73
2022/10/19 09:43:52;;;;;;;11.38;1.30;;;;;;;;;;5137065;27;20043;-73
2022/10/19 09:46:41;;;;;;;8.82;1.50;;;;;;;;;;5136846;27;20058;-74
2022/10/19 09:49:07;;;;;;;9.88;1.40;;;;;;;;;;5138793;27;20435;-73
2022/10/19 09:51:44;;;;;;;9.20;1.95;;;;;;;;;;5139248;27;20047;-74
2022/10/19 09:54:22;;;;;;;11.32;1.52;;;;;;;;;;5142021;27;20046;-71
2022/10/19 09:56:52;;;;;;;9.27;2.03;;;;;;;;;;5140337;27;20042;-71
2022/10/19 09:59:21;;;;;;;8.95;1.55;;;;;;;;;;5139457;27;20456;-75
2022/10/19 10:01:58;;;;;;;10.43;1.92;;;;;;;;;;5149473;27;20043;-71
2022/10/19 10:04:24;;;;;;;12.60;1.92;;;;;;;;;;5154075;27;20042;-71
2022/10/19 10:06:50;;;;;;;10.27;1.80;;;;;;;;;;5136342;27;20044;-72
2022/10/19 10:09:22;;;;;;;11.13;1.60;;;;;;;;;;5135906;27;20043;-71
2022/10/19 10:11:48;;;;;;;11.77;1.90;;;;;;;;;;5148434;27;20043;-72
2022/10/19 10:14:27;;;;;;;11.63;1.73;;;;;;;;;;5137294;27;20386;-72
2022/10/19 10:16:57;;;;;;;9.23;1.60;;;;;;;;;;5153329;27;20035;-72
2022/10/19 10:19:27;;;;;;;9.23;1.70;;;;;;;;;;5132295;27;20412;-72
2022/10/19 10:21:54;;;;;;;10.07;1.67;;;;;;;;;;5134471;27;20099;-72
2022/10/19 10:24:21;;;;;;;7.30;1.30;;;;;;;;;;5144675;27;20042;-72
2022/10/19 10:26:52;;;;;;;13.98;1.95;;;;;;;;;;5136083;27;20077;-72
2022/10/19 10:29:20;;;;;;;9.68;1.48;;;;;;;;;;5116870;27;20039;-72
2022/10/19 10:31:48;;;;;;;12.48;2.22;;;;;;;;;;5135699;27;20493;-72
2022/10/19 10:34:31;;;;;;;10.75;1.60;;;;;;;;;;5137604;27;20519;-72
2022/10/19 10:36:58;;;;;;;11.35;1.95;;;;;;;;;;5135246;27;20188;-72
2022/10/19 10:39:25;;;;;;;9.25;1.48;;;;;;;;;;5153162;27;20532;-72
2022/10/19 10:41:52;;;;;;;8.35;1.63;;;;;;;;;;5155645;27;20042;-73
2022/10/19 10:44:23;;;;;;;10.95;1.75;;;;;;;;;;5146583;27;20043;-72
2022/10/19 10:46:49;;;;;;;8.17;1.57;;;;;;;;;;5135664;27;20040;-71
2022/10/19 10:49:24;;;;;;;9.50;1.67;;;;;;;;;;5141540;27;20060;-72
2022/10/19 10:51:54;;;;;;;11.65;1.60;;;;;;;;;;5135520;27;20077;-72
2022/10/19 10:54:22;;;;;;;10.30;1.83;;;;;;;;;;5138602;27;20082;-72
2022/10/19 10:56:57;;;;;;;13.48;1.60;;;;;;;;;;5130024;27;20039;-73
2022/10/19 10:59:25;;;;;;;13.13;1.75;;;;;;;;;;5136633;27;20130;-72
2022/10/19 11:01:58;;;;;;;11.02;1.80;;;;;;;;;;5137111;27;20039;-72
2022/10/19 11:04:26;;;;;;;10.52;1.58;;;;;;;;;;5119994;27;20042;-72
2022/10/19 11:06:57;;;;;;;7.75;1.30;;;;;;;;;;5133725;27;20038;-72
2022/10/19 11:09:23;;;;;;;;;;;;;;;;;;5135028;27;20053;-72
2022/10/19 11:11:54;;;;;;;11.55;1.98;;;;;;;;;;5134079;27;19923;-72
2022/10/19 11:14:25;;;;;;;10.50;1.48;;;;;;;;;;5135716;27;20054;-72
2022/10/19 11:16:52;;;;;;;7.85;1.40;;;;;;;;;;5154070;27;20559;-72
2022/10/19 11:19:21;;;;;;;8.70;1.17;;;;;;;;;;5143334;27;20082;-71
2022/10/19 11:22:06;;;;;;;9.93;1.45;;;;;;;;;;5137612;27;20047;-72
2022/10/19 11:24:42;;;;;;;8.80;1.50;;;;;;;;;;5143442;27;20038;-72
2022/10/19 11:27:23;;;;;;;6.20;1.15;;;;;;;;;;5135623;27;20180;-72
2022/10/19 11:30:10;;;;;;;10.20;1.17;;;;;;;;;;5134529;27;20125;-72
2022/10/19 11:32:45;;;;;;;8.32;1.55;;;;;;;;;;5146555;27;20049;-72
2022/10/19 11:35:11;;;;;;;8.40;1.90;;;;;;;;;;5153741;27;20357;-73
2022/10/19 11:37:55;;;;;;;6.05;1.30;;;;;;;;;;5131449;27;20391;-72
2022/10/19 11:40:27;;;;;;;11.90;1.92;;;;;;;;;;5142525;27;20051;-72
2022/10/19 11:43:03;;;;;;;10.23;1.58;;;;;;;;;;5137116;27;20030;-72
2022/10/19 11:45:41;;;;;;;7.35;1.23;;;;;;;;;;5134408;27;20381;-72
2022/10/19 11:48:17;;;;;;;9.05;1.55;;;;;;;;;;5120937;27;20392;-71
2022/10/19 11:51:01;;;;;;;5.35;1.40;;;;;;;;;;5148036;27;20051;-72
2022/10/19 11:53:30;;;;;;;7.95;1.45;;;;;;;;;;5135591;27;20043;-73
2022/10/19 11:56:00;;;;;;;7.13;1.63;;;;;;;;;;5136944;27;20034;-73
2022/10/19 11:58:29;;;;;;;9.27;1.63;;;;;;;;;;5135878;27;20366;-71
2022/10/19 12:01:10;;;;;;;9.20;1.67;;;;;;;;;;5141287;27;20101;-71
2022/10/19 12:03:41;;;;;;;8.37;1.30;;;;;;;;;;5132093;27;20229;-71
2022/10/19 12:06:09;;;;;;;11.48;1.70;;;;;;;;;;5117082;27;20035;-72
2022/10/19 12:08:38;;;;;;;9.07;1.30;;;;;;;;;;5136801;27;20519;-71
2022/10/19 12:11:23;;;;;;;8.93;1.58;;;;;;;;;;5121647;27;20146;-72
2022/10/19 12:13:59;;;;;;;6.70;1.42;;;;;;;;;;5135918;27;20521;-71
2022/10/19 12:16:30;;;;;;;6.10;1.30;;;;;;;;;;5134514;27;20483;-71
2022/10/19 12:18:59;;;;;;;8.88;1.63;;;;;;;;;;5133450;27;20082;-72
2022/10/19 12:21:25;;;;;;;6.82;1.30;;;;;;;;;;5134575;27;20779;-71
2022/10/19 12:23:52;;;;;;;6.97;1.30;;;;;;;;;;5115153;27;20529;-72
2022/10/19 12:26:20;;;;;;;9.23;1.65;;;;;;;;;;5145554;27;20050;-71
2022/10/19 12:28:48;;;;;;;6.95;1.40;;;;;;;;;;5121049;27;20560;-71
2022/10/19 12:31:15;;;;;;;7.60;1.38;;;;;;;;;;5134132;27;20043;-72
2022/10/19 12:33:51;;;;;;;8.10;2.00;;;;;;;;;;5137282;27;20426;-73
2022/10/19 12:36:35;;;;;;;9.70;2.00;;;;;;;;;;5142487;27;20099;-71
2022/10/19 12:39:20;;;;;;;9.32;2.10;;;;;;;;;;5140443;27;20042;-72
2022/10/19 12:41:55;;;;;;;9.02;2.83;;;;;;;;;;5137224;27;20049;-72
2022/10/19 12:44:40;;;;;;;8.60;2.55;;;;;;;;;;5132753;27;20507;-72
2022/10/19 12:47:17;;;;;;;8.05;2.33;;;;;;;;;;5152312;27;20034;-72
2022/10/19 12:49:50;;;;;;;7.47;1.60;;;;;;;;;;5151824;27;20398;-71
2022/10/19 12:52:33;;;;;;;8.80;2.58;;;;;;;;;;5136102;27;20504;-72
2022/10/19 12:55:10;;;;;;;8.65;3.17;;;;;;;;;;5133384;27;20035;-71
2022/10/19 12:57:38;;;;;;;8.63;3.10;;;;;;;;;;5132813;27;20419;-71
2022/10/19 13:00:06;;;;;;;10.10;3.55;;;;;;;;;;5138256;27;20039;-71
2022/10/19 13:02:35;;;;;;;9.02;3.85;;;;;;;;;;5136384;27;20067;-71
2022/10/19 13:05:01;;;;;;;10.43;4.00;;;;;;;;;;5128944;27;20058;-71
2022/10/19 13:07:35;;;;;;;9.40;4.10;;;;;;;;;;5132811;27;20522;-72
2022/10/19 13:10:03;;;;;;;11.88;3.85;;;;;;;;;;5139071;27;20054;-70
2022/10/19 13:12:40;;;;;;;9.05;3.58;;;;;;;;;;5143496;27;20039;-71
2022/10/19 13:15:26;;;;;;;10.13;4.00;;;;;;;;;;5132974;27;20158;-71
2022/10/19 13:17:52;;;;;;;9.45;3.63;;;;;;;;;;5153667;27;20054;-71
2022/10/19 13:20:18;;;;;;;8.35;3.80;;;;;;;;;;5151628;27;20058;-72
2022/10/19 13:22:47;;;;;;;12.82;3.88;;;;;;;;;;5140200;27;20043;-73
2022/10/19 13:25:17;;;;;;;10.68;4.07;;;;;;;;;;5114549;28;20437;-72
2022/10/19 13:27:44;;;;;;;9.80;3.90;;;;;;;;;;5145535;27;20047;-72
2022/10/19 13:30:48;;;;;;;13.75;4.20;;;;;;;;;;5153380;27;20399;-72
2022/10/19 13:33:23;;;;;;;11.93;4.38;;;;;;;;;;5068520;28;20044;-72
2022/10/19 13:36:09;;;;;;;12.07;4.63;;;;;;;;;;5050019;28;20470;-72
2022/10/19 13:38:38;;;;;;;12.45;5.05;;;;;;;;;;5061469;28;20129;-72
2022/10/19 13:41:13;;;;;;;11.73;4.93;;;;;;;;;;5056322;28;20052;-72
2022/10/19 13:43:49;;;;;;;10.57;4.68;;;;;;;;;;5055263;28;20086;-72
2022/10/19 13:46:28;;;;;;;12.20;4.47;;;;;;;;;;5050384;28;20510;-72
2022/10/19 13:49:02;;;;;;;11.48;4.40;;;;;;;;;;5054876;28;20036;-72
2022/10/19 13:51:38;;;;;;;10.85;4.30;;;;;;;;;;5049625;28;20060;-72
2022/10/19 13:54:18;;;;;;;9.82;4.10;;;;;;;;;;5066408;28;20044;-72
2022/10/19 13:56:55;;;;;;;11.67;4.27;;;;;;;;;;5062346;28;20140;-72
2022/10/19 13:59:38;;;;;;;10.30;4.20;;;;;;;;;;5068663;28;20515;-72
2022/10/19 14:02:22;;;;;;;8.73;4.40;;;;;;;;;;5065747;28;20048;-72
2022/10/19 14:04:59;;;;;;;10.98;5.15;;;;;;;;;;5128694;27;20162;-72
2022/10/19 14:07:30;;;;;;;11.43;5.47;;;;;;;;;;5130345;27;20357;-72
2022/10/19 14:09:59;;;;;;;8.13;4.57;;;;;;;;;;5157351;27;20054;-71
2022/10/19 14:12:27;;;;;;;10.00;4.68;;;;;;;;;;5138935;27;20439;-71
2022/10/19 14:14:53;;;;;;;11.38;5.18;;;;;;;;;;5146901;27;20100;-71
2022/10/19 14:17:32;;;;;;;9.35;4.93;;;;;;;;;;5135470;27;20078;-71
2022/10/19 14:20:02;;;;;;;9.68;4.97;;;;;;;;;;5138277;27;20518;-71
2022/10/19 14:22:32;;;;;;;10.93;5.90;;;;;;;;;;5139739;27;20272;-71
2022/10/19 14:25:01;;;;;;;10.68;5.82;;;;;;;;;;5143360;27;20043;-71
2022/10/19 14:27:27;;;;;;;11.77;6.22;;;;;;;;;;5136332;27;20055;-71
2022/10/19 14:29:54;;;;;;;8.95;5.97;;;;;;;;;;5136285;27;20487;-72
2022/10/19 14:32:25;;;;;;;12.32;6.78;;;;;;;;;;5138180;27;20051;-74
2022/10/19 14:34:51;;;;;;;;;;;;;;;;;;5157180;27;20587;-73
2022/10/19 14:37:19;;;;;;;10.65;4.95;;;;;;;;;;5138053;27;20395;-72
2022/10/19 14:40:02;;;;;;;9.88;5.15;;;;;;;;;;5135891;27;20051;-72
2022/10/19 14:42:35;;;;;;;7.28;3.22;;;;;;;;;;5136158;27;20511;-72
2022/10/19 14:45:01;;;;;;;11.93;2.70;;;;;;;;;;5135563;27;20035;-72
2022/10/19 14:47:29;;;;;;;6.82;2.63;;;;;;;;;;5121784;27;20051;-72
2022/10/19 14:49:55;;;;;;;10.75;3.75;;;;;;;;;;5137506;27;20051;-72